Adams, Tennessee
Current Conditions -  °F | °C
As of 3:52 AM on Saturday 01 Nov 2014 (Local Time) from KCKV Reporting Station
Clear Clear  
Wind Chill: 27°   Ceiling: Unl
Heat Index: 36°   Visibility: 10mi
Dew Point: 25°   Wind: 14mph
Humidity: 64%   Direction: 330°NNW
Pressure: 30.21"   Gusts: NA
Location:  36.58°N, 87.07°W
Report Text: KCKV 010852Z AUTO 33012KT 10SM CLR 02/M04 A3021 RMK AO2 SLP233 T00221039 51007
Loading
Personal Weather Stations






























Interactive Weather Map New forecast layout! Learn more

10-Day Weather Forecast

Advertisements
Track Severe Weather on mobile